Terminal Aerodrome Forecast
Issued by NWS

Home | Current Version | Previous Version | Text Only | Print | Product List | Glossary On
Versions: 1 2 3 4 5 6 7 8 9 10 11 12 13 14 15 16 17 18 19 20 21 22 23 24 25 26 27 28
000
FTPA31 PHFO 280200 AAA
TAFMKK
TAF AMD
PHMK 280257Z 2803/2824 04011KT P6SM SCT025 BKN045
     FM280600 04009KT P6SM SCT045
     FM282000 04015G25KT P6SM SCT045=

USA.gov is the U.S. government's official web portal to all federal, state and local government web resources and services.